sensor_id;sensor_type;location;lat;lon;timestamp;P1;durP1;ratioP1;P2;durP2;ratioP2
11614;SDS011;5863;52.832;4.758;2024-03-02T00:00:14;1.65;;;1.50;;
11614;SDS011;5863;52.832;4.758;2024-03-02T00:02:41;2.80;;;1.75;;
11614;SDS011;5863;52.832;4.758;2024-03-02T00:05:10;1.60;;;1.50;;
11614;SDS011;5863;52.832;4.758;2024-03-02T00:07:37;1.95;;;1.60;;
11614;SDS011;5863;52.832;4.758;2024-03-02T00:10:07;2.80;;;1.88;;
11614;SDS011;5863;52.832;4.758;2024-03-02T00:12:36;3.70;;;1.65;;
11614;SDS011;5863;52.832;4.758;2024-03-02T00:15:04;2.20;;;2.00;;
11614;SDS011;5863;52.832;4.758;2024-03-02T00:17:45;4.13;;;1.60;;
11614;SDS011;5863;52.832;4.758;2024-03-02T00:20:13;2.42;;;1.60;;
11614;SDS011;5863;52.832;4.758;2024-03-02T00:22:45;2.53;;;1.75;;
11614;SDS011;5863;52.832;4.758;2024-03-02T00:25:14;2.72;;;1.63;;
11614;SDS011;5863;52.832;4.758;2024-03-02T00:27:41;3.85;;;1.70;;
11614;SDS011;5863;52.832;4.758;2024-03-02T00:30:12;1.60;;;1.50;;
11614;SDS011;5863;52.832;4.758;2024-03-02T00:33:06;2.80;;;1.60;;
11614;SDS011;5863;52.832;4.758;2024-03-02T00:35:33;3.80;;;1.95;;
11614;SDS011;5863;52.832;4.758;2024-03-02T00:38:03;5.53;;;1.90;;
11614;SDS011;5863;52.832;4.758;2024-03-02T00:40:32;2.33;;;1.50;;
11614;SDS011;5863;52.832;4.758;2024-03-02T00:42:59;1.67;;;1.40;;
11614;SDS011;5863;52.832;4.758;2024-03-02T00:45:28;1.95;;;1.33;;
11614;SDS011;5863;52.832;4.758;2024-03-02T00:47:55;1.50;;;1.40;;
11614;SDS011;5863;52.832;4.758;2024-03-02T00:50:22;1.70;;;1.20;;
11614;SDS011;5863;52.832;4.758;2024-03-02T00:52:49;1.95;;;0.90;;
11614;SDS011;5863;52.832;4.758;2024-03-02T00:55:16;1.75;;;0.93;;
11614;SDS011;5863;52.832;4.758;2024-03-02T00:57:44;1.35;;;1.10;;
11614;SDS011;5863;52.832;4.758;2024-03-02T01:00:12;1.20;;;1.10;;
11614;SDS011;5863;52.832;4.758;2024-03-02T01:02:40;1.70;;;1.20;;
11614;SDS011;5863;52.832;4.758;2024-03-02T01:05:09;2.20;;;1.10;;
11614;SDS011;5863;52.832;4.758;2024-03-02T01:07:37;1.08;;;0.90;;
11614;SDS011;5863;52.832;4.758;2024-03-02T01:10:04;1.35;;;1.10;;
11614;SDS011;5863;52.832;4.758;2024-03-02T01:12:32;0.80;;;0.80;;
11614;SDS011;5863;52.832;4.758;2024-03-02T01:15:01;0.82;;;0.75;;
11614;SDS011;5863;52.832;4.758;2024-03-02T01:17:29;0.75;;;0.63;;
11614;SDS011;5863;52.832;4.758;2024-03-02T01:19:56;1.25;;;0.70;;
11614;SDS011;5863;52.832;4.758;2024-03-02T01:22:22;1.08;;;0.98;;
11614;SDS011;5863;52.832;4.758;2024-03-02T01:24:50;0.82;;;0.70;;
11614;SDS011;5863;52.832;4.758;2024-03-02T01:27:17;0.50;;;0.50;;
11614;SDS011;5863;52.832;4.758;2024-03-02T01:29:45;0.50;;;0.50;;
11614;SDS011;5863;52.832;4.758;2024-03-02T01:32:13;0.68;;;0.68;;
11614;SDS011;5863;52.832;4.758;2024-03-02T01:34:40;0.82;;;0.70;;
11614;SDS011;5863;52.832;4.758;2024-03-02T01:37:07;1.00;;;0.77;;
11614;SDS011;5863;52.832;4.758;2024-03-02T01:39:35;1.15;;;0.80;;
11614;SDS011;5863;52.832;4.758;2024-03-02T01:42:02;0.70;;;0.70;;
11614;SDS011;5863;52.832;4.758;2024-03-02T01:44:29;1.67;;;1.10;;
11614;SDS011;5863;52.832;4.758;2024-03-02T01:46:55;1.13;;;0.68;;
11614;SDS011;5863;52.832;4.758;2024-03-02T01:49:24;1.45;;;0.68;;
11614;SDS011;5863;52.832;4.758;2024-03-02T01:51:50;2.58;;;1.15;;
11614;SDS011;5863;52.832;4.758;2024-03-02T01:54:17;2.00;;;0.90;;
11614;SDS011;5863;52.832;4.758;2024-03-02T01:56:44;0.82;;;0.73;;
11614;SDS011;5863;52.832;4.758;2024-03-02T01:59:11;1.08;;;0.98;;
11614;SDS011;5863;52.832;4.758;2024-03-02T02:01:38;3.15;;;1.25;;
11614;SDS011;5863;52.832;4.758;2024-03-02T02:04:05;1.40;;;1.30;;
11614;SDS011;5863;52.832;4.758;2024-03-02T02:06:34;0.88;;;0.88;;
11614;SDS011;5863;52.832;4.758;2024-03-02T02:09:01;1.30;;;1.20;;
11614;SDS011;5863;52.832;4.758;2024-03-02T02:11:27;1.25;;;1.15;;
11614;SDS011;5863;52.832;4.758;2024-03-02T02:13:54;1.23;;;1.10;;
11614;SDS011;5863;52.832;4.758;2024-03-02T02:16:21;1.17;;;1.17;;
11614;SDS011;5863;52.832;4.758;2024-03-02T02:18:48;2.00;;;1.40;;
11614;SDS011;5863;52.832;4.758;2024-03-02T02:21:15;1.48;;;1.38;;
11614;SDS011;5863;52.832;4.758;2024-03-02T02:23:43;2.30;;;1.50;;
11614;SDS011;5863;52.832;4.758;2024-03-02T02:26:13;2.17;;;1.65;;
11614;SDS011;5863;52.832;4.758;2024-03-02T02:28:40;2.57;;;1.60;;
11614;SDS011;5863;52.832;4.758;2024-03-02T02:31:11;2.47;;;1.20;;
11614;SDS011;5863;52.832;4.758;2024-03-02T02:33:39;1.13;;;1.03;;
11614;SDS011;5863;52.832;4.758;2024-03-02T02:36:06;1.08;;;0.98;;
11614;SDS011;5863;52.832;4.758;2024-03-02T02:38:33;1.10;;;1.05;;
11614;SDS011;5863;52.832;4.758;2024-03-02T02:41:05;1.20;;;1.10;;
11614;SDS011;5863;52.832;4.758;2024-03-02T02:43:32;1.80;;;1.20;;
11614;SDS011;5863;52.832;4.758;2024-03-02T02:45:59;0.95;;;0.93;;
11614;SDS011;5863;52.832;4.758;2024-03-02T02:48:26;1.00;;;1.00;;
11614;SDS011;5863;52.832;4.758;2024-03-02T02:50:53;1.30;;;1.20;;
11614;SDS011;5863;52.832;4.758;2024-03-02T02:53:20;0.85;;;0.85;;
11614;SDS011;5863;52.832;4.758;2024-03-02T02:55:47;1.48;;;1.38;;
11614;SDS011;5863;52.832;4.758;2024-03-02T02:58:15;1.27;;;1.17;;
11614;SDS011;5863;52.832;4.758;2024-03-02T03:00:42;1.33;;;1.23;;
11614;SDS011;5863;52.832;4.758;2024-03-02T03:03:09;2.33;;;1.27;;
11614;SDS011;5863;52.832;4.758;2024-03-02T03:05:35;1.30;;;1.20;;
11614;SDS011;5863;52.832;4.758;2024-03-02T03:08:02;2.60;;;1.50;;
11614;SDS011;5863;52.832;4.758;2024-03-02T03:10:29;1.60;;;1.50;;
11614;SDS011;5863;52.832;4.758;2024-03-02T03:12:56;1.73;;;1.63;;
11614;SDS011;5863;52.832;4.758;2024-03-02T03:15:24;1.70;;;1.60;;
11614;SDS011;5863;52.832;4.758;2024-03-02T03:17:51;2.22;;;1.80;;
11614;SDS011;5863;52.832;4.758;2024-03-02T03:20:18;2.10;;;1.80;;
11614;SDS011;5863;52.832;4.758;2024-03-02T03:22:46;2.17;;;1.93;;
11614;SDS011;5863;52.832;4.758;2024-03-02T03:25:13;3.47;;;2.40;;
11614;SDS011;5863;52.832;4.758;2024-03-02T03:27:40;2.73;;;2.53;;
11614;SDS011;5863;52.832;4.758;2024-03-02T03:30:07;3.03;;;2.60;;
11614;SDS011;5863;52.832;4.758;2024-03-02T03:32:36;3.07;;;2.77;;
11614;SDS011;5863;52.832;4.758;2024-03-02T03:35:03;3.70;;;2.93;;
11614;SDS011;5863;52.832;4.758;2024-03-02T03:37:31;5.13;;;3.10;;
11614;SDS011;5863;52.832;4.758;2024-03-02T03:39:58;3.70;;;3.40;;
11614;SDS011;5863;52.832;4.758;2024-03-02T03:42:26;3.73;;;3.43;;
11614;SDS011;5863;52.832;4.758;2024-03-02T03:44:52;5.57;;;3.60;;
11614;SDS011;5863;52.832;4.758;2024-03-02T03:47:19;3.70;;;3.40;;
11614;SDS011;5863;52.832;4.758;2024-03-02T03:49:48;4.83;;;3.67;;
11614;SDS011;5863;52.832;4.758;2024-03-02T03:52:14;4.80;;;3.90;;
11614;SDS011;5863;52.832;4.758;2024-03-02T03:54:41;4.03;;;3.67;;
11614;SDS011;5863;52.832;4.758;2024-03-02T03:57:09;4.17;;;3.77;;
11614;SDS011;5863;52.832;4.758;2024-03-02T03:59:36;4.20;;;3.80;;
11614;SDS011;5863;52.832;4.758;2024-03-02T04:02:03;3.60;;;3.30;;
11614;SDS011;5863;52.832;4.758;2024-03-02T04:04:30;3.80;;;3.50;;
11614;SDS011;5863;52.832;4.758;2024-03-02T04:07:00;3.73;;;3.43;;
11614;SDS011;5863;52.832;4.758;2024-03-02T04:09:26;3.70;;;3.40;;
11614;SDS011;5863;52.832;4.758;2024-03-02T04:11:53;3.40;;;3.10;;
11614;SDS011;5863;52.832;4.758;2024-03-02T04:14:20;3.50;;;3.20;;
11614;SDS011;5863;52.832;4.758;2024-03-02T04:16:47;4.53;;;3.73;;
11614;SDS011;5863;52.832;4.758;2024-03-02T04:19:14;3.73;;;3.00;;
11614;SDS011;5863;52.832;4.758;2024-03-02T04:21:41;3.70;;;3.10;;
11614;SDS011;5863;52.832;4.758;2024-03-02T04:24:09;4.83;;;3.47;;
11614;SDS011;5863;52.832;4.758;2024-03-02T04:26:36;5.37;;;3.57;;
11614;SDS011;5863;52.832;4.758;2024-03-02T04:29:02;6.50;;;3.90;;
11614;SDS011;5863;52.832;4.758;2024-03-02T04:31:29;3.40;;;3.10;;
11614;SDS011;5863;52.832;4.758;2024-03-02T04:33:56;3.27;;;2.93;;
11614;SDS011;5863;52.832;4.758;2024-03-02T04:36:23;3.73;;;3.20;;
11614;SDS011;5863;52.832;4.758;2024-03-02T04:38:50;3.07;;;2.77;;
11614;SDS011;5863;52.832;4.758;2024-03-02T04:41:18;3.10;;;2.80;;
11614;SDS011;5863;52.832;4.758;2024-03-02T04:43:45;3.47;;;3.17;;
11614;SDS011;5863;52.832;4.758;2024-03-02T04:46:12;5.50;;;2.83;;
11614;SDS011;5863;52.832;4.758;2024-03-02T04:48:38;3.40;;;3.10;;
11614;SDS011;5863;52.832;4.758;2024-03-02T04:51:05;3.40;;;3.10;;
11614;SDS011;5863;52.832;4.758;2024-03-02T04:53:32;4.30;;;3.10;;
11614;SDS011;5863;52.832;4.758;2024-03-02T04:55:59;5.67;;;3.50;;
11614;SDS011;5863;52.832;4.758;2024-03-02T04:58:56;4.23;;;3.63;;
11614;SDS011;5863;52.832;4.758;2024-03-02T05:01:23;4.63;;;3.37;;
11614;SDS011;5863;52.832;4.758;2024-03-02T05:03:50;4.17;;;3.77;;
11614;SDS011;5863;52.832;4.758;2024-03-02T05:06:17;4.17;;;3.80;;
11614;SDS011;5863;52.832;4.758;2024-03-02T05:08:43;4.17;;;3.83;;
11614;SDS011;5863;52.832;4.758;2024-03-02T05:11:11;5.63;;;3.90;;
11614;SDS011;5863;52.832;4.758;2024-03-02T05:14:15;5.00;;;4.10;;
11614;SDS011;5863;52.832;4.758;2024-03-02T05:16:41;4.93;;;3.40;;
11614;SDS011;5863;52.832;4.758;2024-03-02T05:19:07;4.07;;;3.67;;
11614;SDS011;5863;52.832;4.758;2024-03-02T05:21:34;3.83;;;3.47;;
11614;SDS011;5863;52.832;4.758;2024-03-02T05:24:01;3.63;;;3.33;;
11614;SDS011;5863;52.832;4.758;2024-03-02T05:26:28;3.97;;;3.50;;
11614;SDS011;5863;52.832;4.758;2024-03-02T05:28:55;5.40;;;3.23;;
11614;SDS011;5863;52.832;4.758;2024-03-02T05:31:23;4.30;;;3.20;;
11614;SDS011;5863;52.832;4.758;2024-03-02T05:33:50;3.20;;;2.90;;
11614;SDS011;5863;52.832;4.758;2024-03-02T05:36:17;4.23;;;3.47;;
11614;SDS011;5863;52.832;4.758;2024-03-02T05:38:45;4.90;;;3.10;;
11614;SDS011;5863;52.832;4.758;2024-03-02T05:41:12;4.10;;;2.70;;
11614;SDS011;5863;52.832;4.758;2024-03-02T05:43:39;3.30;;;3.00;;
11614;SDS011;5863;52.832;4.758;2024-03-02T05:46:06;3.43;;;3.00;;
11614;SDS011;5863;52.832;4.758;2024-03-02T05:48:34;3.50;;;2.80;;
11614;SDS011;5863;52.832;4.758;2024-03-02T05:51:01;2.90;;;2.60;;
11614;SDS011;5863;52.832;4.758;2024-03-02T05:53:28;3.80;;;2.40;;
11614;SDS011;5863;52.832;4.758;2024-03-02T05:55:55;3.00;;;2.33;;
11614;SDS011;5863;52.832;4.758;2024-03-02T05:58:22;2.23;;;2.03;;
11614;SDS011;5863;52.832;4.758;2024-03-02T06:00:58;2.70;;;2.50;;
11614;SDS011;5863;52.832;4.758;2024-03-02T06:03:25;3.13;;;2.50;;
11614;SDS011;5863;52.832;4.758;2024-03-02T06:05:54;2.93;;;2.60;;
11614;SDS011;5863;52.832;4.758;2024-03-02T06:08:21;2.37;;;2.17;;
11614;SDS011;5863;52.832;4.758;2024-03-02T06:10:48;3.23;;;2.30;;
11614;SDS011;5863;52.832;4.758;2024-03-02T06:13:15;2.93;;;2.00;;
11614;SDS011;5863;52.832;4.758;2024-03-02T06:15:42;2.77;;;2.30;;
11614;SDS011;5863;52.832;4.758;2024-03-02T06:18:08;2.63;;;2.20;;
11614;SDS011;5863;52.832;4.758;2024-03-02T06:20:35;2.60;;;2.20;;
11614;SDS011;5863;52.832;4.758;2024-03-02T06:23:04;2.93;;;2.20;;
11614;SDS011;5863;52.832;4.758;2024-03-02T06:25:31;3.63;;;2.07;;
11614;SDS011;5863;52.832;4.758;2024-03-02T06:27:58;1.80;;;1.70;;
11614;SDS011;5863;52.832;4.758;2024-03-02T06:30:24;3.67;;;2.00;;
11614;SDS011;5863;52.832;4.758;2024-03-02T06:32:52;2.73;;;1.90;;
11614;SDS011;5863;52.832;4.758;2024-03-02T06:35:19;3.23;;;1.70;;
11614;SDS011;5863;52.832;4.758;2024-03-02T06:37:45;2.47;;;1.60;;
11614;SDS011;5863;52.832;4.758;2024-03-02T06:40:14;2.00;;;1.53;;
11614;SDS011;5863;52.832;4.758;2024-03-02T06:42:41;2.37;;;1.60;;
11614;SDS011;5863;52.832;4.758;2024-03-02T06:45:07;2.00;;;1.80;;
11614;SDS011;5863;52.832;4.758;2024-03-02T06:47:34;2.50;;;1.63;;
11614;SDS011;5863;52.832;4.758;2024-03-02T06:50:01;2.77;;;1.70;;
11614;SDS011;5863;52.832;4.758;2024-03-02T06:52:28;5.50;;;1.40;;
11614;SDS011;5863;52.832;4.758;2024-03-02T06:54:55;2.07;;;1.57;;
11614;SDS011;5863;52.832;4.758;2024-03-02T06:57:23;1.67;;;1.40;;
11614;SDS011;5863;52.832;4.758;2024-03-02T06:59:50;1.83;;;1.20;;
11614;SDS011;5863;52.832;4.758;2024-03-02T07:02:19;2.13;;;1.30;;
11614;SDS011;5863;52.832;4.758;2024-03-02T07:04:48;2.93;;;1.30;;
11614;SDS011;5863;52.832;4.758;2024-03-02T07:07:16;1.60;;;1.50;;
11614;SDS011;5863;52.832;4.758;2024-03-02T07:09:43;2.25;;;1.45;;
11614;SDS011;5863;52.832;4.758;2024-03-02T07:12:10;2.90;;;1.40;;
11614;SDS011;5863;52.832;4.758;2024-03-02T07:14:38;1.30;;;1.20;;
11614;SDS011;5863;52.832;4.758;2024-03-02T07:17:33;3.43;;;1.13;;
11614;SDS011;5863;52.832;4.758;2024-03-02T07:20:00;2.83;;;1.20;;
11614;SDS011;5863;52.832;4.758;2024-03-02T07:22:28;2.43;;;1.20;;
11614;SDS011;5863;52.832;4.758;2024-03-02T07:24:55;2.37;;;0.97;;
11614;SDS011;5863;52.832;4.758;2024-03-02T07:27:22;3.75;;;1.10;;
11614;SDS011;5863;52.832;4.758;2024-03-02T07:29:50;4.85;;;1.35;;
11614;SDS011;5863;52.832;4.758;2024-03-02T07:32:18;1.48;;;1.10;;
11614;SDS011;5863;52.832;4.758;2024-03-02T07:34:45;3.70;;;1.20;;
11614;SDS011;5863;52.832;4.758;2024-03-02T07:37:11;1.98;;;1.30;;
11614;SDS011;5863;52.832;4.758;2024-03-02T07:39:38;1.67;;;0.80;;
11614;SDS011;5863;52.832;4.758;2024-03-02T07:42:05;3.40;;;1.30;;
11614;SDS011;5863;52.832;4.758;2024-03-02T07:44:32;2.33;;;1.13;;
11614;SDS011;5863;52.832;4.758;2024-03-02T07:47:01;2.75;;;1.33;;
11614;SDS011;5863;52.832;4.758;2024-03-02T07:49:28;1.85;;;1.02;;
11614;SDS011;5863;52.832;4.758;2024-03-02T07:51:55;1.40;;;1.20;;
11614;SDS011;5863;52.832;4.758;2024-03-02T07:54:21;2.47;;;1.30;;
11614;SDS011;5863;52.832;4.758;2024-03-02T07:56:48;1.10;;;1.00;;
11614;SDS011;5863;52.832;4.758;2024-03-02T07:59:15;1.33;;;1.10;;
11614;SDS011;5863;52.832;4.758;2024-03-02T08:01:42;2.45;;;1.20;;
11614;SDS011;5863;52.832;4.758;2024-03-02T08:04:11;1.17;;;1.08;;
11614;SDS011;5863;52.832;4.758;2024-03-02T08:06:37;2.03;;;1.58;;
11614;SDS011;5863;52.832;4.758;2024-03-02T08:09:04;2.20;;;1.15;;
11614;SDS011;5863;52.832;4.758;2024-03-02T08:11:35;5.30;;;1.30;;
11614;SDS011;5863;52.832;4.758;2024-03-02T08:14:02;5.53;;;2.00;;
11614;SDS011;5863;52.832;4.758;2024-03-02T08:16:29;2.95;;;1.38;;
11614;SDS011;5863;52.832;4.758;2024-03-02T08:18:56;2.90;;;1.30;;
11614;SDS011;5863;52.832;4.758;2024-03-02T08:21:24;3.13;;;1.27;;
11614;SDS011;5863;52.832;4.758;2024-03-02T08:23:55;1.77;;;0.80;;
11614;SDS011;5863;52.832;4.758;2024-03-02T08:26:22;4.07;;;1.52;;
11614;SDS011;5863;52.832;4.758;2024-03-02T08:28:49;3.20;;;1.23;;
11614;SDS011;5863;52.832;4.758;2024-03-02T08:31:16;1.77;;;1.08;;
11614;SDS011;5863;52.832;4.758;2024-03-02T08:33:43;1.65;;;1.10;;
11614;SDS011;5863;52.832;4.758;2024-03-02T08:36:10;2.15;;;1.23;;
11614;SDS011;5863;52.832;4.758;2024-03-02T08:38:38;3.60;;;1.20;;
11614;SDS011;5863;52.832;4.758;2024-03-02T08:41:05;2.75;;;1.50;;
11614;SDS011;5863;52.832;4.758;2024-03-02T08:43:33;2.85;;;1.30;;
11614;SDS011;5863;52.832;4.758;2024-03-02T08:46:00;3.90;;;1.20;;
11614;SDS011;5863;52.832;4.758;2024-03-02T08:48:27;2.63;;;1.20;;
11614;SDS011;5863;52.832;4.758;2024-03-02T08:50:54;3.13;;;1.30;;
11614;SDS011;5863;52.832;4.758;2024-03-02T08:53:21;2.17;;;1.27;;
11614;SDS011;5863;52.832;4.758;2024-03-02T08:55:49;2.25;;;1.33;;
11614;SDS011;5863;52.832;4.758;2024-03-02T08:58:16;3.38;;;1.45;;
11614;SDS011;5863;52.832;4.758;2024-03-02T09:00:43;2.25;;;1.33;;
11614;SDS011;5863;52.832;4.758;2024-03-02T09:03:10;2.35;;;1.48;;
11614;SDS011;5863;52.832;4.758;2024-03-02T09:05:37;2.05;;;1.33;;
11614;SDS011;5863;52.832;4.758;2024-03-02T09:08:04;2.58;;;1.40;;
11614;SDS011;5863;52.832;4.758;2024-03-02T09:10:32;3.35;;;1.33;;
11614;SDS011;5863;52.832;4.758;2024-03-02T09:13:01;1.83;;;1.30;;
11614;SDS011;5863;52.832;4.758;2024-03-02T09:15:28;2.13;;;1.55;;
11614;SDS011;5863;52.832;4.758;2024-03-02T09:17:55;5.40;;;1.30;;
11614;SDS011;5863;52.832;4.758;2024-03-02T09:20:21;2.25;;;1.33;;
11614;SDS011;5863;52.832;4.758;2024-03-02T09:22:48;2.25;;;1.35;;
11614;SDS011;5863;52.832;4.758;2024-03-02T09:25:15;7.45;;;1.58;;
11614;SDS011;5863;52.832;4.758;2024-03-02T09:27:42;4.78;;;1.40;;
11614;SDS011;5863;52.832;4.758;2024-03-02T09:30:11;2.50;;;1.25;;
11614;SDS011;5863;52.832;4.758;2024-03-02T09:32:39;3.35;;;1.40;;
11614;SDS011;5863;52.832;4.758;2024-03-02T09:35:06;3.90;;;1.77;;
11614;SDS011;5863;52.832;4.758;2024-03-02T09:37:34;4.43;;;1.38;;
11614;SDS011;5863;52.832;4.758;2024-03-02T09:40:01;2.58;;;1.05;;
11614;SDS011;5863;52.832;4.758;2024-03-02T09:42:28;3.25;;;1.33;;
11614;SDS011;5863;52.832;4.758;2024-03-02T09:44:55;3.53;;;1.48;;
11614;SDS011;5863;52.832;4.758;2024-03-02T09:47:24;2.85;;;1.52;;
11614;SDS011;5863;52.832;4.758;2024-03-02T09:49:51;2.47;;;1.50;;
11614;SDS011;5863;52.832;4.758;2024-03-02T09:52:18;2.55;;;1.23;;
11614;SDS011;5863;52.832;4.758;2024-03-02T09:54:47;3.40;;;1.27;;
11614;SDS011;5863;52.832;4.758;2024-03-02T09:57:14;5.47;;;1.20;;
11614;SDS011;5863;52.832;4.758;2024-03-02T09:59:41;4.25;;;1.30;;
11614;SDS011;5863;52.832;4.758;2024-03-02T10:02:10;2.38;;;1.00;;
11614;SDS011;5863;52.832;4.758;2024-03-02T10:04:38;3.90;;;1.33;;
11614;SDS011;5863;52.832;4.758;2024-03-02T10:07:12;2.10;;;1.20;;
11614;SDS011;5863;52.832;4.758;2024-03-02T10:09:40;5.00;;;1.40;;
11614;SDS011;5863;52.832;4.758;2024-03-02T10:12:07;5.40;;;1.30;;
11614;SDS011;5863;52.832;4.758;2024-03-02T10:14:36;3.95;;;1.42;;
11614;SDS011;5863;52.832;4.758;2024-03-02T10:17:04;3.30;;;1.20;;
11614;SDS011;5863;52.832;4.758;2024-03-02T10:19:32;4.22;;;1.15;;
11614;SDS011;5863;52.832;4.758;2024-03-02T10:22:01;2.55;;;1.30;;
11614;SDS011;5863;52.832;4.758;2024-03-02T10:24:35;2.17;;;1.23;;
11614;SDS011;5863;52.832;4.758;2024-03-02T10:27:06;2.05;;;1.05;;
11614;SDS011;5863;52.832;4.758;2024-03-02T10:29:36;2.85;;;0.98;;
11614;SDS011;5863;52.832;4.758;2024-03-02T10:32:05;3.88;;;1.05;;
11614;SDS011;5863;52.832;4.758;2024-03-02T10:34:34;5.47;;;1.33;;
11614;SDS011;5863;52.832;4.758;2024-03-02T10:37:03;3.95;;;1.40;;
11614;SDS011;5863;52.832;4.758;2024-03-02T10:39:31;5.13;;;1.35;;
11614;SDS011;5863;52.832;4.758;2024-03-02T10:42:00;3.25;;;1.17;;
11614;SDS011;5863;52.832;4.758;2024-03-02T10:44:28;3.22;;;0.95;;
11614;SDS011;5863;52.832;4.758;2024-03-02T10:46:56;1.35;;;0.90;;
11614;SDS011;5863;52.832;4.758;2024-03-02T10:49:26;3.53;;;1.20;;
11614;SDS011;5863;52.832;4.758;2024-03-02T10:51:55;6.22;;;1.55;;
11614;SDS011;5863;52.832;4.758;2024-03-02T10:54:23;4.78;;;1.20;;
11614;SDS011;5863;52.832;4.758;2024-03-02T10:56:54;3.40;;;1.05;;
11614;SDS011;5863;52.832;4.758;2024-03-02T10:59:26;2.17;;;1.05;;
11614;SDS011;5863;52.832;4.758;2024-03-02T11:01:56;3.38;;;1.17;;
11614;SDS011;5863;52.832;4.758;2024-03-02T11:04:25;3.90;;;1.05;;
11614;SDS011;5863;52.832;4.758;2024-03-02T11:06:54;5.20;;;1.20;;
11614;SDS011;5863;52.832;4.758;2024-03-02T11:09:27;3.38;;;1.10;;
11614;SDS011;5863;52.832;4.758;2024-03-02T11:11:58;4.97;;;1.20;;
11614;SDS011;5863;52.832;4.758;2024-03-02T11:14:30;2.08;;;1.10;;
11614;SDS011;5863;52.832;4.758;2024-03-02T11:16:58;3.58;;;1.05;;
11614;SDS011;5863;52.832;4.758;2024-03-02T11:19:28;2.78;;;1.00;;
11614;SDS011;5863;52.832;4.758;2024-03-02T11:21:57;4.13;;;1.10;;
11614;SDS011;5863;52.832;4.758;2024-03-02T11:24:34;3.83;;;1.10;;
11614;SDS011;5863;52.832;4.758;2024-03-02T11:27:02;4.88;;;1.27;;
11614;SDS011;5863;52.832;4.758;2024-03-02T11:29:42;6.32;;;1.60;;
11614;SDS011;5863;52.832;4.758;2024-03-02T11:32:13;6.30;;;0.98;;
11614;SDS011;5863;52.832;4.758;2024-03-02T11:34:41;2.75;;;0.93;;
11614;SDS011;5863;52.832;4.758;2024-03-02T11:37:11;1.80;;;1.08;;
11614;SDS011;5863;52.832;4.758;2024-03-02T11:39:40;4.43;;;1.17;;
11614;SDS011;5863;52.832;4.758;2024-03-02T11:42:09;3.35;;;1.33;;
11614;SDS011;5863;52.832;4.758;2024-03-02T11:44:39;2.58;;;1.08;;
11614;SDS011;5863;52.832;4.758;2024-03-02T11:47:07;1.35;;;0.98;;
11614;SDS011;5863;52.832;4.758;2024-03-02T11:49:37;4.60;;;1.25;;
11614;SDS011;5863;52.832;4.758;2024-03-02T11:52:05;3.03;;;1.30;;
11614;SDS011;5863;52.832;4.758;2024-03-02T11:54:33;4.40;;;0.98;;
11614;SDS011;5863;52.832;4.758;2024-03-02T11:57:02;2.10;;;0.98;;
11614;SDS011;5863;52.832;4.758;2024-03-02T11:59:30;3.03;;;1.00;;
11614;SDS011;5863;52.832;4.758;2024-03-02T12:01:57;6.85;;;1.17;;
11614;SDS011;5863;52.832;4.758;2024-03-02T12:04:25;4.25;;;1.10;;
11614;SDS011;5863;52.832;4.758;2024-03-02T12:06:56;3.10;;;1.25;;
11614;SDS011;5863;52.832;4.758;2024-03-02T12:09:25;3.63;;;1.00;;
11614;SDS011;5863;52.832;4.758;2024-03-02T12:12:01;4.78;;;1.55;;
11614;SDS011;5863;52.832;4.758;2024-03-02T12:14:30;2.33;;;0.88;;
11614;SDS011;5863;52.832;4.758;2024-03-02T12:16:57;2.42;;;1.00;;
11614;SDS011;5863;52.832;4.758;2024-03-02T12:19:24;4.18;;;1.38;;
11614;SDS011;5863;52.832;4.758;2024-03-02T12:21:52;3.88;;;1.08;;
11614;SDS011;5863;52.832;4.758;2024-03-02T12:24:20;2.33;;;0.93;;
11614;SDS011;5863;52.832;4.758;2024-03-02T12:26:47;3.95;;;1.00;;
11614;SDS011;5863;52.832;4.758;2024-03-02T12:29:17;3.47;;;1.30;;
11614;SDS011;5863;52.832;4.758;2024-03-02T12:31:45;6.03;;;1.23;;
11614;SDS011;5863;52.832;4.758;2024-03-02T12:34:13;3.58;;;1.35;;
11614;SDS011;5863;52.832;4.758;2024-03-02T12:36:43;2.97;;;1.15;;
11614;SDS011;5863;52.832;4.758;2024-03-02T12:39:12;4.10;;;1.23;;
11614;SDS011;5863;52.832;4.758;2024-03-02T12:41:39;4.25;;;1.10;;
11614;SDS011;5863;52.832;4.758;2024-03-02T12:44:07;2.92;;;0.95;;
11614;SDS011;5863;52.832;4.758;2024-03-02T12:46:35;2.55;;;1.05;;
11614;SDS011;5863;52.832;4.758;2024-03-02T12:49:05;4.28;;;1.15;;
11614;SDS011;5863;52.832;4.758;2024-03-02T12:51:35;3.53;;;0.90;;
11614;SDS011;5863;52.832;4.758;2024-03-02T12:54:02;2.45;;;0.75;;
11614;SDS011;5863;52.832;4.758;2024-03-02T12:56:30;3.90;;;1.10;;
11614;SDS011;5863;52.832;4.758;2024-03-02T12:58:57;2.15;;;0.90;;
11614;SDS011;5863;52.832;4.758;2024-03-02T13:01:25;2.63;;;1.10;;
11614;SDS011;5863;52.832;4.758;2024-03-02T13:03:53;3.83;;;1.38;;
11614;SDS011;5863;52.832;4.758;2024-03-02T13:06:22;2.25;;;1.02;;
11614;SDS011;5863;52.832;4.758;2024-03-02T13:08:49;3.25;;;1.10;;
11614;SDS011;5863;52.832;4.758;2024-03-02T13:11:16;1.83;;;0.93;;
11614;SDS011;5863;52.832;4.758;2024-03-02T13:13:43;4.63;;;1.50;;
11614;SDS011;5863;52.832;4.758;2024-03-02T13:16:10;4.00;;;1.17;;
11614;SDS011;5863;52.832;4.758;2024-03-02T13:18:38;4.20;;;1.10;;
11614;SDS011;5863;52.832;4.758;2024-03-02T13:21:07;1.88;;;0.90;;
11614;SDS011;5863;52.832;4.758;2024-03-02T13:23:34;2.03;;;0.90;;
11614;SDS011;5863;52.832;4.758;2024-03-02T13:26:01;4.32;;;1.63;;
11614;SDS011;5863;52.832;4.758;2024-03-02T13:28:28;2.55;;;1.05;;
11614;SDS011;5863;52.832;4.758;2024-03-02T13:30:55;2.90;;;1.20;;
11614;SDS011;5863;52.832;4.758;2024-03-02T13:33:23;3.17;;;1.17;;
11614;SDS011;5863;52.832;4.758;2024-03-02T13:35:50;2.85;;;1.23;;
11614;SDS011;5863;52.832;4.758;2024-03-02T13:38:18;4.47;;;1.30;;
11614;SDS011;5863;52.832;4.758;2024-03-02T13:40:46;3.50;;;1.02;;
11614;SDS011;5863;52.832;4.758;2024-03-02T13:43:16;3.08;;;1.00;;
11614;SDS011;5863;52.832;4.758;2024-03-02T13:45:43;1.48;;;0.80;;
11614;SDS011;5863;52.832;4.758;2024-03-02T13:48:10;1.17;;;0.70;;
11614;SDS011;5863;52.832;4.758;2024-03-02T13:50:37;3.85;;;1.27;;
11614;SDS011;5863;52.832;4.758;2024-03-02T13:53:04;4.82;;;1.25;;
11614;SDS011;5863;52.832;4.758;2024-03-02T13:55:33;2.35;;;0.95;;
11614;SDS011;5863;52.832;4.758;2024-03-02T13:58:00;2.90;;;0.82;;
11614;SDS011;5863;52.832;4.758;2024-03-02T14:00:27;2.05;;;0.85;;
11614;SDS011;5863;52.832;4.758;2024-03-02T14:02:54;5.05;;;1.08;;
11614;SDS011;5863;52.832;4.758;2024-03-02T14:05:20;4.15;;;1.00;;
11614;SDS011;5863;52.832;4.758;2024-03-02T14:07:47;2.78;;;1.00;;
11614;SDS011;5863;52.832;4.758;2024-03-02T14:10:14;2.58;;;1.00;;
11614;SDS011;5863;52.832;4.758;2024-03-02T14:12:44;1.55;;;0.75;;
11614;SDS011;5863;52.832;4.758;2024-03-02T14:15:11;2.25;;;0.90;;
11614;SDS011;5863;52.832;4.758;2024-03-02T14:17:38;1.33;;;0.85;;
11614;SDS011;5863;52.832;4.758;2024-03-02T14:20:05;2.65;;;0.98;;
11614;SDS011;5863;52.832;4.758;2024-03-02T14:22:35;3.38;;;0.98;;
11614;SDS011;5863;52.832;4.758;2024-03-02T14:25:02;2.38;;;0.80;;
11614;SDS011;5863;52.832;4.758;2024-03-02T14:27:29;1.67;;;0.93;;
11614;SDS011;5863;52.832;4.758;2024-03-02T14:29:58;3.22;;;1.10;;
11614;SDS011;5863;52.832;4.758;2024-03-02T14:32:24;2.90;;;0.95;;
11614;SDS011;5863;52.832;4.758;2024-03-02T14:34:51;3.35;;;0.93;;
11614;SDS011;5863;52.832;4.758;2024-03-02T14:37:18;2.80;;;1.15;;
11614;SDS011;5863;52.832;4.758;2024-03-02T14:39:46;2.83;;;0.88;;
11614;SDS011;5863;52.832;4.758;2024-03-02T14:42:13;3.30;;;1.00;;
11614;SDS011;5863;52.832;4.758;2024-03-02T14:44:40;3.30;;;1.00;;
11614;SDS011;5863;52.832;4.758;2024-03-02T14:47:09;3.83;;;1.10;;
11614;SDS011;5863;52.832;4.758;2024-03-02T14:49:36;2.08;;;1.08;;
11614;SDS011;5863;52.832;4.758;2024-03-02T14:52:05;4.90;;;1.20;;
11614;SDS011;5863;52.832;4.758;2024-03-02T14:54:32;2.10;;;1.10;;
11614;SDS011;5863;52.832;4.758;2024-03-02T14:57:00;3.30;;;1.05;;
11614;SDS011;5863;52.832;4.758;2024-03-02T14:59:27;3.17;;;1.20;;
11614;SDS011;5863;52.832;4.758;2024-03-02T15:01:54;1.50;;;1.02;;
11614;SDS011;5863;52.832;4.758;2024-03-02T15:04:23;2.25;;;1.23;;